Time;durP1;ratioP1;P1;durP2;ratioP2;P2;SDS_P1;SDS_P2;PMS_P1;PMS_P2;Temp;Humidity;BMP_temperature;BMP_pressure;BME280_temperature;BME280_humidity;BME280_pressure;Samples;Min_cycle;Max_cycle;Signal;HPM_P1;HPM_P2
2021/04/18 00:00:28;;;;;;;8.75;6.40;;;5.20;99.90;;;;;;4905569;29;20223;-87
2021/04/18 00:02:54;;;;;;;6.82;6.22;;;5.20;99.90;;;;;;4906657;29;20214;-86
2021/04/18 00:05:22;;;;;;;6.65;6.10;;;5.20;99.90;;;;;;4906149;29;20227;-86
2021/04/18 00:07:49;;;;;;;5.50;5.10;;;5.20;99.90;;;;;;4906575;29;20211;-87
2021/04/18 00:10:19;;;;;;;7.18;6.53;;;5.30;99.90;;;;;;4908020;29;20296;-87
2021/04/18 00:12:46;;;;;;;7.95;7.30;;;5.20;99.90;;;;;;4909572;29;20242;-87
2021/04/18 00:15:15;;;;;;;7.95;6.63;;;5.20;99.90;;;;;;4909053;29;20230;-87
2021/04/18 00:17:42;;;;;;;7.40;6.80;;;5.30;99.90;;;;;;4908731;29;20243;-87
2021/04/18 00:20:11;;;;;;;6.20;5.68;;;5.40;99.90;;;;;;4908432;29;20238;-86
2021/04/18 00:22:38;;;;;;;7.35;6.25;;;5.40;99.90;;;;;;4907539;29;20207;-87
2021/04/18 00:25:05;;;;;;;7.50;6.72;;;5.50;99.90;;;;;;4907676;29;20253;-87
2021/04/18 00:27:32;;;;;;;7.70;7.00;;;5.40;99.90;;;;;;4907898;29;20199;-87
2021/04/18 00:29:58;;;;;;;7.47;6.60;;;5.40;99.90;;;;;;4907704;29;20215;-87
2021/04/18 00:32:25;;;;;;;9.15;6.68;;;5.30;99.90;;;;;;4907368;29;20231;-87
2021/04/18 00:34:52;;;;;;;7.15;6.28;;;5.20;99.90;;;;;;4907892;29;20238;-86
2021/04/18 00:37:18;;;;;;;6.05;5.55;;;5.30;99.90;;;;;;4907771;29;20211;-86
2021/04/18 00:39:45;;;;;;;6.15;5.68;;;5.40;99.90;;;;;;4907733;29;20215;-86
2021/04/18 00:42:11;;;;;;;6.55;5.47;;;5.50;99.90;;;;;;4906926;29;20203;-87
2021/04/18 00:44:38;;;;;;;6.13;5.28;;;5.50;99.90;;;;;;4907050;29;20231;-86
2021/04/18 00:47:04;;;;;;;7.82;7.18;;;5.50;99.90;;;;;;4907339;29;20631;-87
2021/04/18 00:49:30;;;;;;;7.15;6.32;;;5.50;99.90;;;;;;4908021;29;20225;-87
2021/04/18 00:51:57;;;;;;;8.65;7.75;;;5.40;99.90;;;;;;4908713;29;20294;-87
2021/04/18 00:54:23;;;;;;;7.60;6.88;;;5.50;99.90;;;;;;4908332;29;20940;-86
2021/04/18 00:56:50;;;;;;;6.43;5.80;;;5.50;99.90;;;;;;4908339;29;20218;-86
2021/04/18 00:59:16;;;;;;;6.75;6.15;;;5.50;99.90;;;;;;4908864;29;20226;-87
2021/04/18 01:01:42;;;;;;;6.53;5.93;;;5.50;99.90;;;;;;4907838;29;20215;-87
2021/04/18 01:04:08;;;;;;;7.03;6.32;;;5.60;99.90;;;;;;4908823;29;20207;-87
2021/04/18 01:06:35;;;;;;;6.05;5.45;;;5.60;99.90;;;;;;4907672;29;20208;-87
2021/04/18 01:09:02;;;;;;;7.32;6.72;;;5.50;99.90;;;;;;4908494;29;20214;-87
2021/04/18 01:11:28;;;;;;;6.72;6.22;;;5.50;99.90;;;;;;4907450;29;20222;-87
2021/04/18 01:13:55;;;;;;;6.03;5.57;;;5.50;99.90;;;;;;4906413;29;20291;-87
2021/04/18 01:16:21;;;;;;;7.55;6.75;;;5.50;99.90;;;;;;4906590;29;20592;-87
2021/04/18 01:18:47;;;;;;;6.80;6.20;;;5.50;99.90;;;;;;4906186;29;20218;-87
2021/04/18 01:21:14;;;;;;;7.05;6.45;;;5.50;99.90;;;;;;4905443;29;20223;-86
2021/04/18 01:23:41;;;;;;;7.70;7.10;;;5.50;99.90;;;;;;4905402;29;20207;-86
2021/04/18 01:26:07;;;;;;;7.90;7.20;;;5.50;99.90;;;;;;4906340;29;20231;-87
2021/04/18 01:28:34;;;;;;;7.95;7.15;;;5.40;99.90;;;;;;4906349;29;20215;-87
2021/04/18 01:31:00;;;;;;;7.80;7.10;;;5.30;99.90;;;;;;4907926;29;20211;-86
2021/04/18 01:33:26;;;;;;;7.10;6.40;;;5.40;99.90;;;;;;4907599;29;20241;-86
2021/04/18 01:35:53;;;;;;;7.13;6.43;;;5.40;99.90;;;;;;4908008;29;20241;-87
2021/04/18 01:38:22;;;;;;;7.72;6.40;;;5.30;99.90;;;;;;4906515;29;20211;-87
2021/04/18 01:40:48;;;;;;;9.57;7.20;;;5.30;99.90;;;;;;4906968;29;20219;-86
2021/04/18 01:43:16;;;;;;;9.15;8.38;;;5.30;99.90;;;;;;4906161;29;20215;-87
2021/04/18 01:45:43;;;;;;;6.75;6.15;;;5.30;99.90;;;;;;4907361;29;20254;-87
2021/04/18 01:48:11;;;;;;;7.63;7.03;;;5.30;99.90;;;;;;4907539;29;20219;-87
2021/04/18 01:50:40;;;;;;;7.70;6.95;;;5.40;99.90;;;;;;4907557;29;20626;-87
2021/04/18 01:53:07;;;;;;;8.52;7.72;;;5.40;99.90;;;;;;4906947;29;20257;-87
2021/04/18 01:55:35;;;;;;;7.95;7.18;;;5.40;99.90;;;;;;4906554;29;20238;-86
2021/04/18 01:58:02;;;;;;;9.73;8.85;;;5.40;99.90;;;;;;4906522;29;20221;-87
2021/04/18 02:00:28;;;;;;;9.40;7.85;;;5.40;99.90;;;;;;4905947;29;20207;-87
2021/04/18 02:02:54;;;;;;;8.77;8.00;;;5.40;99.90;;;;;;4906665;29;20211;-86
2021/04/18 02:05:20;;;;;;;8.00;7.15;;;5.30;99.90;;;;;;4906743;29;20250;-87
2021/04/18 02:07:47;;;;;;;10.77;8.32;;;5.40;99.90;;;;;;4906279;29;20203;-86
2021/04/18 02:10:18;;;;;;;7.90;7.13;;;5.30;99.90;;;;;;4906998;29;20215;-87
2021/04/18 02:12:46;;;;;;;9.50;8.50;;;5.40;99.90;;;;;;4906689;29;20235;-87
2021/04/18 02:15:14;;;;;;;9.68;8.75;;;5.40;99.90;;;;;;4907126;29;20282;-86
2021/04/18 02:17:40;;;;;;;9.40;8.50;;;5.40;99.90;;;;;;4908331;29;20247;-87
2021/04/18 02:20:08;;;;;;;9.18;8.38;;;5.40;99.90;;;;;;4908232;29;20219;-87
2021/04/18 02:22:35;;;;;;;9.93;9.02;;;5.40;99.90;;;;;;4907363;29;20211;-87
2021/04/18 02:25:01;;;;;;;8.73;7.93;;;5.40;99.90;;;;;;4906640;29;20788;-86
2021/04/18 02:27:27;;;;;;;8.63;7.85;;;5.40;99.90;;;;;;4907371;29;20237;-87
2021/04/18 02:29:55;;;;;;;8.55;7.75;;;5.30;99.90;;;;;;4906957;29;20243;-87
2021/04/18 02:32:22;;;;;;;9.57;8.57;;;5.40;99.90;;;;;;4902404;29;20279;-84
2021/04/18 02:34:49;;;;;;;8.77;7.93;;;5.50;99.90;;;;;;4900449;29;20238;-86
2021/04/18 02:37:15;;;;;;;9.13;8.32;;;5.50;99.90;;;;;;4901072;29;20581;-85
2021/04/18 02:39:41;;;;;;;10.52;9.63;;;5.50;99.90;;;;;;4900914;29;20211;-85
2021/04/18 02:42:08;;;;;;;9.80;8.82;;;5.50;99.90;;;;;;4900758;29;20215;-85
2021/04/18 02:44:34;;;;;;;10.10;9.15;;;5.50;99.90;;;;;;4900651;29;20235;-84
2021/04/18 02:47:01;;;;;;;9.13;8.32;;;5.50;99.90;;;;;;4901033;29;20678;-85
2021/04/18 02:49:27;;;;;;;9.18;8.52;;;5.50;99.90;;;;;;4900556;29;20225;-83
2021/04/18 02:51:53;;;;;;;8.05;7.32;;;5.60;99.90;;;;;;4899934;29;20211;-84
2021/04/18 02:54:20;;;;;;;9.57;8.68;;;5.50;99.90;;;;;;4900902;29;20290;-85
2021/04/18 02:56:46;;;;;;;9.57;8.68;;;5.50;99.90;;;;;;4900383;29;20207;-85
2021/04/18 02:59:14;;;;;;;9.65;8.82;;;5.40;99.90;;;;;;4900709;29;20263;-86
2021/04/18 03:01:40;;;;;;;9.52;8.73;;;5.50;99.90;;;;;;4900275;29;20741;-85
2021/04/18 03:04:08;;;;;;;10.38;9.32;;;5.40;99.90;;;;;;4900434;29;20266;-85
2021/04/18 03:06:35;;;;;;;10.30;9.27;;;5.40;99.90;;;;;;4900106;29;20211;-85
2021/04/18 03:09:01;;;;;;;12.30;9.68;;;5.50;99.90;;;;;;4900955;29;20760;-86
2021/04/18 03:11:27;;;;;;;10.25;9.35;;;5.50;99.90;;;;;;4900379;29;20207;-85
2021/04/18 03:13:53;;;;;;;10.38;9.38;;;5.50;99.90;;;;;;4900287;29;20227;-85
2021/04/18 03:16:20;;;;;;;10.77;9.98;;;5.60;99.90;;;;;;4900334;29;20230;-85
2021/04/18 03:18:46;;;;;;;11.55;10.45;;;5.60;99.90;;;;;;4900085;29;20764;-84
2021/04/18 03:21:13;;;;;;;10.48;9.48;;;5.60;99.90;;;;;;4899903;29;20215;-85
2021/04/18 03:23:39;;;;;;;11.75;10.70;;;5.70;99.90;;;;;;4898784;29;20222;-86
2021/04/18 03:26:06;;;;;;;10.00;9.20;;;5.70;99.90;;;;;;4898872;29;20231;-86
2021/04/18 03:28:57;;;;;;;;;;;;;;;;;;;;;
2021/04/18 04:10:44;;;;;;;14.48;11.75;;;5.10;99.90;;;;;;4772687;30;20208;-85
2021/04/18 04:13:11;;;;;;;13.50;12.23;;;5.10;99.90;;;;;;4835712;29;20605;-86
2021/04/18 04:15:37;;;;;;;12.20;11.10;;;5.10;99.90;;;;;;4904077;29;20302;-83
2021/04/18 04:18:03;;;;;;;11.60;10.50;;;5.00;99.90;;;;;;4904658;29;20235;-84
2021/04/18 04:20:30;;;;;;;12.10;10.90;;;5.00;99.90;;;;;;4904104;29;20211;-85
2021/04/18 04:22:56;;;;;;;9.77;8.90;;;5.00;99.90;;;;;;4903153;29;20263;-85
2021/04/18 04:25:23;;;;;;;11.13;10.23;;;5.00;99.90;;;;;;4902915;29;20231;-84
2021/04/18 04:27:49;;;;;;;11.25;10.18;;;5.10;99.90;;;;;;4902073;29;20302;-84
2021/04/18 04:30:17;;;;;;;13.88;11.00;;;5.10;99.90;;;;;;4901909;29;20633;-85
2021/04/18 04:32:46;;;;;;;11.02;9.85;;;5.10;99.90;;;;;;4903785;29;20612;-86
2021/04/18 04:35:13;;;;;;;10.50;9.48;;;5.00;99.90;;;;;;4902091;29;20237;-85
2021/04/18 04:37:39;;;;;;;11.75;10.15;;;5.10;99.90;;;;;;4901959;29;20211;-84
2021/04/18 04:40:07;;;;;;;10.27;9.48;;;5.00;99.90;;;;;;4902203;29;20636;-84
2021/04/18 04:42:33;;;;;;;12.00;10.82;;;5.00;99.90;;;;;;4902102;29;20246;-86
2021/04/18 04:44:59;;;;;;;10.30;9.20;;;5.10;99.90;;;;;;4902313;29;20227;-85
2021/04/18 04:47:28;;;;;;;11.50;10.30;;;5.10;99.90;;;;;;4902047;29;20223;-84
2021/04/18 04:49:55;;;;;;;10.38;9.25;;;5.10;99.90;;;;;;4905210;29;20308;-86
2021/04/18 04:52:21;;;;;;;11.82;10.68;;;5.10;99.90;;;;;;4904431;29;20227;-86
2021/04/18 04:54:47;;;;;;;12.50;10.30;;;5.10;99.90;;;;;;4903568;29;20234;-86
2021/04/18 04:57:15;;;;;;;11.98;10.93;;;5.20;99.90;;;;;;4901929;29;20207;-86
2021/04/18 04:59:41;;;;;;;10.95;9.85;;;5.30;99.90;;;;;;4903501;29;20218;-86
2021/04/18 05:02:07;;;;;;;12.45;11.20;;;5.30;99.90;;;;;;4903908;29;20698;-86
2021/04/18 05:04:35;;;;;;;11.20;10.20;;;5.40;99.90;;;;;;4908166;29;20234;-87
2021/04/18 05:07:02;;;;;;;11.63;10.52;;;5.50;99.90;;;;;;4904559;29;20218;-85
2021/04/18 05:09:28;;;;;;;11.57;10.38;;;5.50;99.90;;;;;;4902198;29;20203;-84
2021/04/18 05:11:55;;;;;;;12.60;11.30;;;5.50;99.90;;;;;;4902008;29;20215;-84
2021/04/18 05:14:21;;;;;;;13.55;9.93;;;5.60;99.90;;;;;;4903885;29;20274;-86
2021/04/18 05:16:47;;;;;;;11.90;10.75;;;5.60;99.90;;;;;;4905781;29;20211;-87
2021/04/18 05:19:13;;;;;;;11.68;10.60;;;5.70;99.90;;;;;;4902709;29;20211;-86
2021/04/18 05:21:42;;;;;;;16.77;11.77;;;5.80;99.90;;;;;;4902635;29;20244;-86
2021/04/18 05:24:09;;;;;;;11.80;9.90;;;5.80;99.90;;;;;;4902712;29;20231;-86
2021/04/18 05:26:35;;;;;;;11.73;10.63;;;5.80;99.90;;;;;;4902625;29;20207;-85
2021/04/18 05:29:01;;;;;;;12.35;11.10;;;5.80;99.90;;;;;;4903546;29;20211;-86
2021/04/18 05:31:27;;;;;;;12.32;11.13;;;5.90;99.90;;;;;;4901414;29;20654;-85
2021/04/18 05:33:54;;;;;;;12.48;10.18;;;5.90;99.90;;;;;;4900654;29;20235;-86
2021/04/18 06:04:15;;;;;;;10.10;9.10;;;6.30;99.90;;;;;;4838681;29;20278;-87
2021/04/18 06:29:47;;;;;;;9.50;8.60;;;6.80;99.90;;;;;;4833578;29;20220;-84
2021/04/18 06:32:13;;;;;;;9.27;8.43;;;6.90;99.90;;;;;;4904496;29;20233;-87
2021/04/18 06:34:39;;;;;;;9.07;8.27;;;7.00;99.90;;;;;;4905478;29;20243;-86
2021/04/18 06:37:06;;;;;;;9.57;8.70;;;7.10;99.90;;;;;;4904363;29;20659;-83
2021/04/18 06:39:32;;;;;;;10.90;10.00;;;7.20;99.90;;;;;;4904990;29;20207;-82
2021/04/18 06:42:01;;;;;;;9.55;8.82;;;7.20;99.90;;;;;;4904570;29;20207;-85
2021/04/18 06:44:29;;;;;;;9.65;8.75;;;7.30;99.90;;;;;;4904608;29;20253;-84
2021/04/18 06:46:58;;;;;;;10.85;9.85;;;7.40;99.90;;;;;;4904472;29;20225;-86
2021/04/18 06:49:24;;;;;;;10.00;9.10;;;7.50;99.90;;;;;;4904481;29;20690;-83
2021/04/18 06:51:52;;;;;;;9.25;8.38;;;7.50;99.90;;;;;;4904201;29;20214;-85
2021/04/18 06:54:19;;;;;;;10.57;9.70;;;7.50;99.90;;;;;;4905264;29;20239;-85
2021/04/18 06:56:46;;;;;;;10.93;9.85;;;7.60;99.90;;;;;;4908743;29;20215;-85
2021/04/18 06:59:12;;;;;;;11.02;10.02;;;7.60;99.90;;;;;;4908571;29;20225;-83
2021/04/18 07:01:38;;;;;;;11.77;10.68;;;7.70;99.90;;;;;;4908578;29;20211;-85
2021/04/18 07:04:13;;;;;;;10.48;9.50;;;7.70;99.90;;;;;;4908397;29;20214;-84
2021/04/18 07:06:42;;;;;;;11.20;10.27;;;7.80;99.90;;;;;;4907922;29;20214;-83
2021/04/18 07:09:08;;;;;;;11.00;10.00;;;7.90;99.90;;;;;;4907790;29;20217;-84
2021/04/18 07:11:49;;;;;;;11.95;10.75;;;8.00;99.90;;;;;;4908387;29;20255;-83
2021/04/18 07:14:27;;;;;;;9.90;9.10;;;8.10;99.90;;;;;;4907760;29;20231;-84
2021/04/18 07:16:55;;;;;;;10.10;9.15;;;8.20;99.90;;;;;;4904605;29;20689;-86
2021/04/18 07:19:25;;;;;;;11.05;9.95;;;8.40;99.90;;;;;;4904140;29;20207;-83
2021/04/18 07:21:53;;;;;;;10.65;9.55;;;8.40;99.90;;;;;;4909032;29;20226;-84
2021/04/18 07:24:21;;;;;;;11.02;9.35;;;8.50;99.90;;;;;;4907133;29;20589;-86
2021/04/18 07:26:56;;;;;;;9.98;8.80;;;8.70;99.90;;;;;;4907196;29;20235;-83
2021/04/18 07:29:24;;;;;;;10.15;9.10;;;8.80;99.90;;;;;;4906220;29;20249;-85
2021/04/18 07:31:50;;;;;;;10.77;9.47;;;9.00;99.90;;;;;;4907178;29;20219;-86
2021/04/18 07:34:18;;;;;;;9.35;8.57;;;9.10;99.90;;;;;;4906658;29;20494;-83
2021/04/18 07:36:46;;;;;;;9.60;8.70;;;9.20;99.90;;;;;;4907421;29;20212;-85
2021/04/18 07:39:14;;;;;;;10.40;9.30;;;9.30;99.90;;;;;;4907143;29;20675;-83
2021/04/18 07:41:43;;;;;;;9.20;8.35;;;9.30;99.90;;;;;;4906079;29;20212;-84
2021/04/18 07:44:14;;;;;;;11.65;8.52;;;9.40;99.90;;;;;;4906744;29;20212;-85
2021/04/18 07:46:44;;;;;;;10.32;9.20;;;9.40;99.90;;;;;;4905628;29;20328;-84
2021/04/18 07:49:12;;;;;;;9.98;8.63;;;9.50;99.90;;;;;;4906544;29;20247;-83
2021/04/18 07:51:41;;;;;;;9.18;8.30;;;9.50;99.90;;;;;;4905296;29;20264;-84
2021/04/18 07:54:09;;;;;;;9.63;8.73;;;9.50;99.90;;;;;;4904792;29;20616;-83
2021/04/18 07:56:42;;;;;;;8.82;8.00;;;9.50;99.90;;;;;;4904916;29;20464;-82
2021/04/18 07:59:13;;;;;;;9.82;8.98;;;9.50;99.90;;;;;;4904905;29;20253;-84
2021/04/18 08:01:39;;;;;;;8.60;7.80;;;9.60;99.90;;;;;;4905207;29;20570;-83
2021/04/18 08:04:09;;;;;;;13.50;9.43;;;9.70;99.90;;;;;;4908459;29;20230;-85
2021/04/18 08:06:35;;;;;;;8.73;7.93;;;9.70;99.80;;;;;;4913496;29;20483;-81
2021/04/18 08:09:16;;;;;;;8.70;8.00;;;9.80;99.90;;;;;;4911828;29;20457;-82
2021/04/18 08:12:03;;;;;;;9.53;8.17;;;10.00;99.70;;;;;;4911954;29;20449;-87
2021/04/18 08:14:30;;;;;;;9.17;8.27;;;10.00;98.70;;;;;;4909790;29;20489;-86
2021/04/18 08:17:05;;;;;;;9.63;7.37;;;10.00;98.90;;;;;;4909257;29;20896;-83
2021/04/18 08:36:30;;;;;;;9.63;8.00;;;10.60;97.60;;;;;;4634323;30;20553;-83
2021/04/18 08:39:19;;;;;;;8.23;7.43;;;10.60;97.80;;;;;;4676862;30;20484;-83
2021/04/18 08:41:47;;;;;;;7.27;6.67;;;10.60;97.60;;;;;;4808509;29;20993;-85
2021/04/18 08:44:15;;;;;;;7.10;6.53;;;10.60;97.40;;;;;;4883721;29;20462;-84
2021/04/18 08:46:41;;;;;;;7.30;6.70;;;10.50;97.40;;;;;;4904043;29;20522;-82
2021/04/18 08:49:09;;;;;;;7.90;7.20;;;10.50;97.10;;;;;;4914663;29;20473;-82
2021/04/18 08:51:40;;;;;;;12.30;7.17;;;10.50;96.40;;;;;;4914056;29;20463;-84
2021/04/18 08:54:10;;;;;;;7.03;6.30;;;10.50;96.90;;;;;;4917684;29;20497;-83
2021/04/18 08:56:47;;;;;;;10.07;6.40;;;10.60;96.90;;;;;;4907560;29;20446;-85
2021/04/18 08:59:15;;;;;;;8.40;7.40;;;10.70;96.00;;;;;;4904411;29;20493;-84
2021/04/18 09:12:20;;;;;;;;;;;;;;;;;;;;;
2021/04/18 09:24:46;;;;;;;6.67;6.03;;;11.10;93.80;;;;;;4737228;29;20980;-84
2021/04/18 09:27:42;;;;;;;7.63;6.60;;;10.60;93.50;;;;;;4827606;29;20465;-83
2021/04/18 09:30:13;;;;;;;6.90;6.20;;;10.60;93.60;;;;;;4787674;30;20565;-81
2021/04/18 09:32:41;;;;;;;6.40;5.80;;;10.40;94.20;;;;;;4834163;29;20648;-81
2021/04/18 09:35:10;;;;;;;8.23;6.97;;;10.40;93.90;;;;;;4900943;29;20979;-80
2021/04/18 09:37:38;;;;;;;7.63;6.93;;;10.30;94.00;;;;;;4901051;29;20494;-84
2021/04/18 09:40:08;;;;;;;7.37;6.30;;;10.50;94.40;;;;;;4900663;29;20469;-83
2021/04/18 09:42:36;;;;;;;8.43;7.30;;;10.70;94.70;;;;;;4899634;29;20474;-83
2021/04/18 09:45:13;;;;;;;6.70;6.10;;;10.80;93.70;;;;;;4900538;29;20561;-82
2021/04/18 09:47:45;;;;;;;7.20;6.53;;;10.90;93.50;;;;;;4900653;29;20483;-84
2021/04/18 09:50:17;;;;;;;7.67;6.50;;;10.90;93.60;;;;;;4900014;29;20557;-84
2021/04/18 09:52:44;;;;;;;19.80;8.53;;;10.90;93.70;;;;;;4900737;29;20439;-83
2021/04/18 09:55:14;;;;;;;7.87;7.07;;;10.90;93.20;;;;;;4900224;29;20483;-84
2021/04/18 09:57:44;;;;;;;9.03;8.13;;;11.00;93.80;;;;;;4900518;29;20478;-84
2021/04/18 10:00:15;;;;;;;7.80;7.00;;;11.10;93.10;;;;;;4899861;29;20473;-85
2021/04/18 10:02:42;;;;;;;9.03;7.47;;;11.10;93.10;;;;;;4899506;29;20561;-85
2021/04/18 10:05:13;;;;;;;7.83;6.23;;;11.10;93.20;;;;;;4900010;29;20516;-84
2021/04/18 10:07:41;;;;;;;10.87;7.47;;;11.20;93.00;;;;;;4900431;29;20457;-85
2021/04/18 10:10:12;;;;;;;6.87;6.20;;;11.20;92.20;;;;;;4900020;29;20796;-85
2021/04/18 10:12:52;;;;;;;7.70;6.53;;;11.40;92.40;;;;;;4899808;29;20815;-85
2021/04/18 10:15:20;;;;;;;7.83;7.13;;;11.40;92.50;;;;;;4899927;29;20848;-85
2021/04/18 10:17:47;;;;;;;12.63;8.37;;;11.60;92.40;;;;;;4900128;29;20845;-84
2021/04/18 10:20:28;;;;;;;7.53;6.83;;;11.70;91.50;;;;;;4899810;29;20464;-84
2021/04/18 10:23:05;;;;;;;7.70;7.00;;;11.50;90.90;;;;;;4899542;29;20518;-84
2021/04/18 10:25:32;;;;;;;9.93;7.93;;;11.50;91.00;;;;;;4899579;29;20511;-84
2021/04/18 10:27:59;;;;;;;8.70;7.90;;;11.50;90.60;;;;;;4899348;29;20972;-84
2021/04/18 10:30:26;;;;;;;8.87;7.97;;;11.60;90.60;;;;;;4899346;29;20965;-85
2021/04/18 10:32:52;;;;;;;8.60;7.80;;;11.70;90.30;;;;;;4899536;29;20982;-85
2021/04/18 10:35:18;;;;;;;8.77;7.97;;;11.60;89.90;;;;;;4899692;29;20481;-85
2021/04/18 10:37:45;;;;;;;10.87;9.37;;;11.80;90.50;;;;;;4900007;29;20463;-84
2021/04/18 10:40:12;;;;;;;10.77;9.70;;;11.90;90.80;;;;;;4899721;29;20473;-85
2021/04/18 10:42:39;;;;;;;9.37;8.50;;;12.00;90.10;;;;;;4899521;29;20463;-85
2021/04/18 10:45:08;;;;;;;9.20;8.07;;;11.70;88.00;;;;;;4899577;29;20494;-84
2021/04/18 10:47:34;;;;;;;10.57;9.10;;;11.70;89.60;;;;;;4899625;29;20459;-84
2021/04/18 10:50:02;;;;;;;9.40;8.50;;;11.80;90.30;;;;;;4899936;29;20473;-85
2021/04/18 10:52:29;;;;;;;9.23;8.33;;;12.00;90.70;;;;;;4898873;29;20811;-84
2021/04/18 10:54:55;;;;;;;10.43;9.27;;;12.30;90.80;;;;;;4899507;29;20507;-84
2021/04/18 10:57:22;;;;;;;9.57;8.67;;;12.40;89.60;;;;;;4899611;29;20545;-84
2021/04/18 10:59:48;;;;;;;10.03;8.90;;;12.70;90.00;;;;;;4899070;29;20539;-84
2021/04/18 11:02:15;;;;;;;12.83;9.13;;;13.00;89.30;;;;;;4898971;29;20454;-85
2021/04/18 11:04:41;;;;;;;10.40;9.30;;;13.20;87.10;;;;;;4898521;29;20471;-84
2021/04/18 11:07:08;;;;;;;9.87;8.90;;;13.10;85.10;;;;;;4898272;29;20969;-84
2021/04/18 11:09:36;;;;;;;9.93;9.13;;;13.00;85.80;;;;;;4898426;29;20455;-84
2021/04/18 11:12:02;;;;;;;10.83;9.33;;;12.90;85.60;;;;;;4898004;29;20464;-84
2021/04/18 11:14:29;;;;;;;9.63;8.83;;;12.70;84.80;;;;;;4898131;29;20550;-82
2021/04/18 11:16:58;;;;;;;9.40;8.50;;;12.70;85.10;;;;;;4898121;29;20456;-85
2021/04/18 11:19:25;;;;;;;8.50;7.77;;;12.90;86.50;;;;;;4899470;29;20463;-83
2021/04/18 11:21:52;;;;;;;10.33;9.33;;;13.00;87.00;;;;;;4899527;29;20463;-84
2021/04/18 11:24:18;;;;;;;10.27;9.23;;;13.10;87.30;;;;;;4899205;29;20942;-82
2021/04/18 11:33:36;;;;;;;9.23;8.33;;;13.30;84.80;;;;;;4899636;29;20494;-82
2021/04/18 11:36:26;;;;;;;9.30;8.40;;;13.50;85.20;;;;;;4893315;29;20496;-83
2021/04/18 11:38:52;;;;;;;8.40;7.57;;;13.30;83.40;;;;;;4887972;29;20784;-82
2021/04/18 11:41:45;;;;;;;9.17;8.27;;;13.10;83.20;;;;;;4904627;29;20447;-84
2021/04/18 11:44:15;;;;;;;9.73;8.73;;;13.00;83.80;;;;;;4901190;29;20802;-79
2021/04/18 11:46:45;;;;;;;17.37;15.80;;;12.90;84.30;;;;;;4900527;29;20471;-86
2021/04/18 11:49:21;;;;;;;11.77;10.67;;;12.70;84.30;;;;;;4899985;29;20455;-85
2021/04/18 11:52:10;;;;;;;9.37;8.47;;;12.40;84.70;;;;;;4900755;29;20487;-84
2021/04/18 11:54:46;;;;;;;8.23;7.60;;;12.40;86.90;;;;;;4900169;29;20507;-85
2021/04/18 11:57:35;;;;;;;9.30;8.37;;;12.30;86.30;;;;;;4898909;29;20431;-84
2021/04/18 12:00:36;;;;;;;9.70;8.70;;;12.40;86.20;;;;;;4898853;29;20447;-84
2021/04/18 12:03:05;;;;;;;8.57;7.77;;;12.00;85.80;;;;;;4898793;29;20458;-84
2021/04/18 12:05:44;;;;;;;;;;;;;;;;;;;;;
2021/04/18 12:08:22;;;;;;;8.03;7.33;;;12.10;88.00;;;;;;4900622;29;20465;-84
2021/04/18 12:10:54;;;;;;;9.40;7.87;;;12.40;88.90;;;;;;4902571;29;20463;-85
2021/04/18 12:13:24;;;;;;;8.20;7.47;;;12.70;88.20;;;;;;4902074;29;20911;-85
2021/04/18 12:15:53;;;;;;;7.27;6.53;;;12.60;84.40;;;;;;4902588;29;20863;-84
2021/04/18 12:18:38;;;;;;;7.60;6.97;;;12.60;84.20;;;;;;4902546;29;20841;-84
2021/04/18 12:21:05;;;;;;;7.37;6.47;;;12.70;85.90;;;;;;4902244;29;20443;-84
2021/04/18 12:23:32;;;;;;;8.80;8.00;;;12.50;85.40;;;;;;4901850;29;20535;-84
2021/04/18 12:26:00;;;;;;;8.67;7.80;;;12.40;85.40;;;;;;4901987;29;20479;-84
2021/04/18 12:28:27;;;;;;;8.07;7.07;;;12.50;85.90;;;;;;4901811;29;20482;-84
2021/04/18 12:30:53;;;;;;;8.07;7.33;;;12.60;85.20;;;;;;4901239;29;20462;-84
2021/04/18 12:33:23;;;;;;;8.03;7.23;;;12.60;84.60;;;;;;4901601;29;20497;-84
2021/04/18 12:35:49;;;;;;;7.60;6.90;;;12.60;84.80;;;;;;4901693;29;20475;-84
2021/04/18 12:38:17;;;;;;;6.90;6.33;;;12.80;84.40;;;;;;4901697;29;20486;-84
2021/04/18 12:40:53;;;;;;;6.77;6.17;;;12.90;84.10;;;;;;4901816;29;20550;-84
2021/04/18 12:43:22;;;;;;;7.53;6.93;;;13.00;83.60;;;;;;4901645;29;20443;-84
2021/04/18 12:45:48;;;;;;;6.80;5.80;;;13.20;83.30;;;;;;4901655;29;20479;-84
2021/04/18 12:48:15;;;;;;;7.50;6.80;;;13.20;83.10;;;;;;4901626;29;20839;-84
2021/04/18 12:50:41;;;;;;;12.00;9.00;;;13.20;82.70;;;;;;4901560;29;20463;-85
2021/04/18 12:53:08;;;;;;;8.70;7.90;;;13.10;82.20;;;;;;4901020;29;20455;-84
2021/04/18 12:55:34;;;;;;;8.80;7.77;;;13.20;82.30;;;;;;4901226;29;20535;-84
2021/04/18 12:58:01;;;;;;;7.60;6.93;;;13.30;82.70;;;;;;4900843;29;20455;-85
2021/04/18 13:00:27;;;;;;;8.37;7.43;;;13.50;83.00;;;;;;4901370;29;20455;-84
2021/04/18 13:02:54;;;;;;;8.07;7.37;;;13.60;82.30;;;;;;4900696;29;20512;-84
2021/04/18 13:05:20;;;;;;;10.33;8.00;;;13.70;83.00;;;;;;4901124;29;20517;-84
2021/04/18 13:07:47;;;;;;;7.60;6.87;;;13.70;82.90;;;;;;4901311;29;20460;-84
2021/04/18 13:10:13;;;;;;;9.73;8.73;;;13.60;81.20;;;;;;4901569;29;20459;-84
2021/04/18 13:12:42;;;;;;;7.57;6.90;;;13.40;81.00;;;;;;4900797;29;20471;-84
2021/04/18 13:15:11;;;;;;;8.70;7.47;;;13.40;81.90;;;;;;4901028;29;20865;-84
2021/04/18 13:17:37;;;;;;;8.13;7.37;;;13.50;82.00;;;;;;4899880;29;20973;-84
2021/04/18 13:20:05;;;;;;;7.53;6.93;;;13.60;80.50;;;;;;4900999;29;20463;-84
2021/04/18 13:22:32;;;;;;;8.43;7.53;;;13.80;81.20;;;;;;4901389;29;20486;-84
2021/04/18 13:24:58;;;;;;;7.73;7.03;;;14.00;80.90;;;;;;4901365;29;20503;-84
2021/04/18 13:27:24;;;;;;;8.23;7.57;;;14.00;79.40;;;;;;4903058;29;20840;-84
2021/04/18 13:29:50;;;;;;;8.03;7.10;;;13.90;79.60;;;;;;4902731;29;20488;-83
2021/04/18 13:32:18;;;;;;;9.17;8.40;;;13.50;79.80;;;;;;4904420;29;20479;-84
2021/04/18 13:34:44;;;;;;;7.90;7.27;;;12.90;80.80;;;;;;4902689;29;20522;-84
2021/04/18 13:37:10;;;;;;;8.17;7.37;;;13.00;82.60;;;;;;4902459;29;20463;-84
2021/04/18 13:39:37;;;;;;;9.43;7.50;;;13.10;82.80;;;;;;4903501;29;20517;-84
2021/04/18 13:42:03;;;;;;;8.97;8.00;;;13.10;83.40;;;;;;4903174;29;20485;-83
2021/04/18 13:44:30;;;;;;;6.97;6.37;;;13.20;82.60;;;;;;4903677;29;20510;-84
2021/04/18 13:46:57;;;;;;;7.80;7.10;;;13.20;82.70;;;;;;4903822;29;20448;-83
2021/04/18 13:49:24;;;;;;;9.63;8.83;;;13.10;82.70;;;;;;4901963;29;20463;-85
2021/04/18 13:51:51;;;;;;;9.20;8.30;;;12.90;82.70;;;;;;4900106;29;20786;-85
2021/04/18 13:54:17;;;;;;;8.57;7.83;;;12.80;82.80;;;;;;4900589;29;20506;-85
2021/04/18 13:56:43;;;;;;;8.07;7.30;;;12.80;82.90;;;;;;4900935;29;20456;-84
2021/04/18 13:59:09;;;;;;;8.70;7.77;;;12.80;83.10;;;;;;4902188;29;20471;-83
2021/04/18 14:01:36;;;;;;;9.37;8.30;;;13.00;82.80;;;;;;4904105;29;20458;-80
2021/04/18 14:04:02;;;;;;;8.60;7.87;;;12.80;82.30;;;;;;4912804;29;20490;-78
2021/04/18 14:06:29;;;;;;;7.20;6.60;;;12.40;82.80;;;;;;4911784;29;20477;-82
2021/04/18 14:08:55;;;;;;;7.83;6.47;;;12.30;83.90;;;;;;4911042;29;20501;-80
2021/04/18 14:11:22;;;;;;;7.80;7.10;;;12.50;84.80;;;;;;4902180;29;20458;-83
2021/04/18 14:13:48;;;;;;;6.40;5.90;;;12.50;84.10;;;;;;4900905;29;20511;-82
2021/04/18 14:16:14;;;;;;;8.20;7.40;;;12.60;84.50;;;;;;4901155;29;20514;-83
2021/04/18 14:18:41;;;;;;;7.40;6.80;;;12.70;83.00;;;;;;4899921;29;20480;-83
2021/04/18 14:21:07;;;;;;;8.63;7.87;;;12.30;84.00;;;;;;4899936;29;20466;-84
2021/04/18 14:23:34;;;;;;;8.93;7.40;;;12.40;84.60;;;;;;4899708;29;20455;-83
2021/04/18 14:26:01;;;;;;;7.97;7.17;;;12.40;83.90;;;;;;4899866;29;20503;-84
2021/04/18 14:28:29;;;;;;;8.33;7.70;;;12.50;84.10;;;;;;4899376;29;20458;-84
2021/04/18 14:30:55;;;;;;;7.83;7.13;;;12.40;83.70;;;;;;4899695;29;20584;-84
2021/04/18 14:33:22;;;;;;;8.23;7.53;;;12.40;83.60;;;;;;4899348;29;20517;-84
2021/04/18 14:35:48;;;;;;;7.37;6.77;;;12.60;85.10;;;;;;4899282;29;20484;-84
2021/04/18 14:38:14;;;;;;;7.23;6.63;;;12.60;84.30;;;;;;4899787;29;20463;-83
2021/04/18 14:40:41;;;;;;;8.43;7.63;;;12.50;83.90;;;;;;4900158;29;20466;-83
2021/04/18 14:43:08;;;;;;;7.10;6.40;;;12.60;84.50;;;;;;4899243;29;20458;-84
2021/04/18 14:45:35;;;;;;;7.43;6.73;;;12.70;84.50;;;;;;4901002;29;20527;-83
2021/04/18 14:48:01;;;;;;;8.20;7.40;;;12.80;84.10;;;;;;4904937;29;20512;-85
2021/04/18 14:50:28;;;;;;;8.03;7.23;;;12.80;84.20;;;;;;4905373;29;20462;-82
2021/04/18 14:52:55;;;;;;;7.47;6.87;;;12.90;83.10;;;;;;4905557;29;20463;-84
2021/04/18 14:55:21;;;;;;;8.37;7.57;;;12.80;82.60;;;;;;4904435;29;20506;-83
2021/04/18 14:57:49;;;;;;;8.40;7.67;;;12.90;83.30;;;;;;4904325;29;20459;-84
2021/04/18 15:00:18;;;;;;;8.70;7.93;;;12.90;82.10;;;;;;4904591;29;20459;-83
2021/04/18 15:02:45;;;;;;;9.37;8.07;;;13.00;82.30;;;;;;4904576;29;20452;-83
2021/04/18 15:05:11;;;;;;;10.30;7.30;;;13.10;82.80;;;;;;4904229;29;20523;-84
2021/04/18 15:07:38;;;;;;;7.70;7.00;;;13.20;82.40;;;;;;4903506;29;20459;-83
2021/04/18 15:10:05;;;;;;;8.17;7.37;;;13.30;82.80;;;;;;4906154;29;20459;-84